KAVL/AVL METAR and TAF weather

Enter ICAO airport designator
Station Type Date Time Source
KAVL METAR 2024/02/26 16:54 UTC NOAA

KAVL 261654Z 15006KT 10SM FEW080 19/01 A3007 RMK AO2 SLP172 T01940011


Station Type Date Time Source
KAVL Decoded METAR 2024/02/26 16:54 UTC NOAA

ASHEVILLE REGIONAL AIRPORT, NC, United States (KAVL) 35-26N 82-32W 670M
Feb 26, 2024 - 11:54 AM EST / 2024.02.26 1654 UTC
Wind: from the SSE (150 degrees) at 7 MPH (6 KT):0
Visibility: 10 mile(s):0
Sky conditions: mostly clear
Temperature: 66.9 F (19.4 C)
Dew Point: 34.0 F (1.1 C)
Relative Humidity: 29%
Pressure (altimeter): 30.07 in. Hg (1018 hPa)
ob: KAVL 261654Z 15006KT 10SM FEW080 19/01 A3007 RMK AO2 SLP172 T01940011
cycle: 17

Station Type Date Time Source
KAVL TAF 2024/02/26 12:48 UTC NOAA